Time;durP1;ratioP1;P1;durP2;ratioP2;P2;SDS_P1;SDS_P2;PMS_P1;PMS_P2;Temp;Humidity;BMP_temperature;BMP_pressure;BME280_temperature;BME280_humidity;BME280_pressure;Samples;Min_cycle;Max_cycle;Signal;HPM_P1;HPM_P2
2020/12/25 00:00:57;;;;;;;;;;;;;;;;;;2053822;28;7010;-66
2020/12/25 00:02:11;;;;;;;;;;;;;;;;;;2054101;28;7041;-65
2020/12/25 00:03:15;;;;;;;;;;;;;;;;;;2062122;28;7038;-65
2020/12/25 00:04:17;;;;;;;;;;;;;;;;;;2061852;28;7110;-65
2020/12/25 00:05:20;;;;;;;;;;;;;;;;;;2062290;28;7025;-65
2020/12/25 00:06:22;;;;;;;;;;;;;;;;;;2057500;28;7014;-65
2020/12/25 00:07:24;;;;;;;;;;;;;;;;;;2054203;28;7250;-66
2020/12/25 00:08:26;;;;;;;;;;;;;;;;;;2054666;28;7089;-65
2020/12/25 00:09:28;;;;;;;;;;;;;;;;;;2053096;28;7125;-67
2020/12/25 00:10:30;;;;;;;;;;;;;;;;;;2054452;28;7503;-63
2020/12/25 00:11:34;;;;;;;;;;;;;;;;;;2052740;28;7006;-64
2020/12/25 00:12:36;;;;;;;;;;;;;;;;;;2054000;28;7136;-66
2020/12/25 00:13:38;;;;;;;;;;;;;;;;;;2054332;28;8034;-65
2020/12/25 00:14:39;;;;;;;;;;;;;;;;;;2054662;28;7365;-64
2020/12/25 00:15:44;;;;;;;;;;;;;;;;;;2055916;28;7089;-65
2020/12/25 00:16:46;;;;;;;;;;;;;;;;;;2055521;28;7006;-65
2020/12/25 00:17:48;;;;;;;;;;;;;;;;;;2055933;28;7092;-65
2020/12/25 00:18:53;;;;;;;;;;;;;;;;;;2055876;28;7009;-63
2020/12/25 00:19:55;;;;;;;;;;;;;;;;;;2059271;28;7247;-66
2020/12/25 00:20:57;;;;;;;;;;;;;;;;;;2062978;28;7177;-64
2020/12/25 00:21:59;;;;;;;;;;;;;;;;;;2055709;28;7093;-67
2020/12/25 00:23:01;;;;;;;;;;;;;;;;;;2055821;28;8040;-64
2020/12/25 00:24:06;;;;;;;;;;;;;;;;;;2056005;28;7021;-66
2020/12/25 00:25:08;;;;;;;;;;;;;;;;;;2054871;28;7010;-65
2020/12/25 00:26:10;;;;;;;;;;;;;;;;;;2062999;28;7117;-64
2020/12/25 00:27:12;;;;;;;;;;;;;;;;;;2055639;28;7014;-66
2020/12/25 00:28:14;;;;;;;;;;;;;;;;;;2055784;28;8037;-65
2020/12/25 00:29:16;;;;;;;;;;;;;;;;;;2055631;28;7368;-66
2020/12/25 00:30:18;;;;;;;;;;;;;;;;;;2054906;28;8763;-66
2020/12/25 00:31:24;;;;;;;;;;;;;;;;;;2054851;28;7021;-64
2020/12/25 00:32:29;;;;;;;;;;;;;;;;;;2056638;28;7089;-67
2020/12/25 00:33:31;;;;;;;;;;;;;;;;;;2062222;28;8572;-67
2020/12/25 00:34:33;;;;;;;;;;;;;;;;;;2063112;28;7034;-66
2020/12/25 00:35:35;;;;;;;;;;;;;;;;;;2061644;28;7093;-67
2020/12/25 00:36:39;;;;;;;;;;;;;;;;;;2062946;28;7084;-64
2020/12/25 00:37:40;;;;;;;;;;;;;;;;;;2063165;28;7097;-65
2020/12/25 00:38:42;;;;;;;;;;;;;;;;;;2063516;28;7009;-65
2020/12/25 00:39:44;;;;;;;;;;;;;;;;;;2063833;28;7092;-65
2020/12/25 00:40:47;;;;;;;;;;;;;;;;;;2062957;28;7009;-66
2020/12/25 00:41:50;;;;;;;;;;;;;;;;;;2055288;28;7101;-65
2020/12/25 00:42:52;;;;;;;;;;;;;;;;;;2056157;28;7017;-64
2020/12/25 00:43:54;;;;;;;;;;;;;;;;;;2055686;28;7010;-67
2020/12/25 00:44:56;;;;;;;;;;;;;;;;;;2055568;28;7013;-65
2020/12/25 00:45:58;;;;;;;;;;;;;;;;;;2055648;28;7010;-66
2020/12/25 00:47:00;;;;;;;;;;;;;;;;;;2055536;28;7109;-66
2020/12/25 00:48:02;;;;;;;;;;;;;;;;;;2055566;28;7089;-66
2020/12/25 00:49:05;;;;;;;;;;;;;;;;;;2055657;28;8137;-64
2020/12/25 00:50:07;;;;;;;;;;;;;;;;;;2055139;28;7014;-63
2020/12/25 00:51:17;;;;;;;;;;;;;;;;;;2060261;28;7208;-65
2020/12/25 00:52:19;;;;;;;;;;;;;;;;;;2055614;28;7030;-67
2020/12/25 00:53:20;;;;;;;;;;;;;;;;;;2055485;28;8028;-65
2020/12/25 00:54:22;;;;;;;;;;;;;;;;;;2055735;28;7022;-65
2020/12/25 00:55:24;;;;;;;;;;;;;;;;;;2055767;28;7010;-68
2020/12/25 00:56:26;;;;;;;;;;;;;;;;;;2055971;28;7009;-65
2020/12/25 00:57:28;;;;;;;;;;;;;;;;;;2064529;28;7096;-64
2020/12/25 00:58:30;;;;;;;;;;;;;;;;;;2062959;28;8108;-65
2020/12/25 00:59:32;;;;;;;;;;;;;;;;;;2062927;28;7025;-68
2020/12/25 01:00:34;;;;;;;;;;;;;;;;;;2063284;28;7042;-67
2020/12/25 01:01:37;;;;;;;;;;;;;;;;;;2060155;28;7010;-67
2020/12/25 01:02:47;;;;;;;;;;;;;;;;;;2055206;28;7009;-65
2020/12/25 01:03:50;;;;;;;;;;;;;;;;;;2056518;28;7088;-64
2020/12/25 01:04:52;;;;;;;;;;;;;;;;;;2063807;28;7042;-65
2020/12/25 01:05:54;;;;;;;;;;;;;;;;;;2059775;28;7017;-64
2020/12/25 01:06:55;;;;;;;;;;;;;;;;;;2063395;28;7009;-65
2020/12/25 01:07:57;;;;;;;;;;;;;;;;;;2063368;28;7325;-67
2020/12/25 01:08:59;;;;;;;;;;;;;;;;;;2063085;28;7337;-64
2020/12/25 01:10:01;;;;;;;;;;;;;;;;;;2057430;28;7046;-65
2020/12/25 01:11:04;;;;;;;;;;;;;;;;;;2055457;28;7093;-65
2020/12/25 01:12:06;;;;;;;;;;;;;;;;;;2055246;28;7006;-68
2020/12/25 01:13:08;;;;;;;;;;;;;;;;;;2055631;28;7023;-64
2020/12/25 01:14:09;;;;;;;;;;;;;;;;;;2054476;28;7014;-66
2020/12/25 01:15:11;;;;;;;;;;;;;;;;;;2055051;28;8068;-64
2020/12/25 01:16:17;;;;;;;;;;;;;;;;;;2062837;28;7092;-65
2020/12/25 01:17:19;;;;;;;;;;;;;;;;;;2063214;28;8032;-65
2020/12/25 01:18:21;;;;;;;;;;;;;;;;;;2063268;28;7342;-65
2020/12/25 01:19:24;;;;;;;;;;;;;;;;;;2063038;28;8053;-64
2020/12/25 01:20:25;;;;;;;;;;;;;;;;;;2063297;28;7109;-65
2020/12/25 01:21:27;;;;;;;;;;;;;;;;;;2058571;28;7014;-63
2020/12/25 01:22:29;;;;;;;;;;;;;;;;;;2055643;28;7292;-64
2020/12/25 01:23:31;;;;;;;;;;;;;;;;;;2055661;28;8044;-64
2020/12/25 01:24:33;;;;;;;;;;;;;;;;;;2060612;28;7010;-65
2020/12/25 01:25:35;;;;;;;;;;;;;;;;;;2062768;28;8043;-65
2020/12/25 01:26:37;;;;;;;;;;;;;;;;;;2060161;28;7356;-65
2020/12/25 01:27:39;;;;;;;;;;;;;;;;;;2055430;28;7010;-65
2020/12/25 01:28:41;;;;;;;;;;;;;;;;;;2055793;28;7093;-65
2020/12/25 01:29:43;;;;;;;;;;;;;;;;;;2055524;28;7105;-63
2020/12/25 01:30:45;;;;;;;;;;;;;;;;;;2054350;28;7092;-66
2020/12/25 01:31:47;;;;;;;;;;;;;;;;;;2055523;28;7022;-65
2020/12/25 01:33:06;;;;;;;;;;;;;;;;;;2055491;28;8047;-65
2020/12/25 01:34:08;;;;;;;;;;;;;;;;;;2055056;28;7103;-66
2020/12/25 01:35:10;;;;;;;;;;;;;;;;;;2060866;28;7102;-65
2020/12/25 01:36:11;;;;;;;;;;;;;;;;;;2060907;28;7050;-65
2020/12/25 01:37:13;;;;;;;;;;;;;;;;;;2053648;28;7105;-65
2020/12/25 01:38:15;;;;;;;;;;;;;;;;;;2055215;28;7054;-65
2020/12/25 01:39:17;;;;;;;;;;;;;;;;;;2055393;28;7116;-64
2020/12/25 01:40:19;;;;;;;;;;;;;;;;;;2055127;28;7017;-66
2020/12/25 01:41:22;;;;;;;;;;;;;;;;;;2055170;28;7100;-67
2020/12/25 01:42:24;;;;;;;;;;;;;;;;;;2062079;28;7022;-63
2020/12/25 01:43:26;;;;;;;;;;;;;;;;;;2062851;28;7097;-64
2020/12/25 01:44:28;;;;;;;;;;;;;;;;;;2058985;28;7006;-68
2020/12/25 01:45:30;;;;;;;;;;;;;;;;;;2056286;28;7054;-65
2020/12/25 01:46:38;;;;;;;;;;;;;;;;;;2055834;28;7121;-65
2020/12/25 01:47:40;;;;;;;;;;;;;;;;;;2055068;28;7010;-66
2020/12/25 01:48:49;;;;;;;;;;;;;;;;;;2055225;28;7144;-65
2020/12/25 01:49:52;;;;;;;;;;;;;;;;;;2054958;28;7069;-64
2020/12/25 01:50:54;;;;;;;;;;;;;;;;;;2055034;28;7025;-64
2020/12/25 01:51:56;;;;;;;;;;;;;;;;;;2055259;28;7014;-64
2020/12/25 01:53:01;;;;;;;;;;;;;;;;;;2055197;28;7106;-64
2020/12/25 01:54:03;;;;;;;;;;;;;;;;;;2055286;28;7014;-63
2020/12/25 01:55:07;;;;;;;;;;;;;;;;;;2054821;28;8990;-65
2020/12/25 01:56:10;;;;;;;;;;;;;;;;;;2055085;28;7085;-65
2020/12/25 01:57:14;;;;;;;;;;;;;;;;;;2057170;28;7046;-65
2020/12/25 01:58:17;;;;;;;;;;;;;;;;;;2062444;28;7042;-63
2020/12/25 01:59:19;;;;;;;;;;;;;;;;;;2061945;28;7130;-63
2020/12/25 02:00:23;;;;;;;;;;;;;;;;;;2062860;28;7042;-63
2020/12/25 02:01:25;;;;;;;;;;;;;;;;;;2062926;28;7014;-63
2020/12/25 02:02:29;;;;;;;;;;;;;;;;;;2062856;28;7005;-63
2020/12/25 02:03:31;;;;;;;;;;;;;;;;;;2062779;28;7093;-65
2020/12/25 02:04:33;;;;;;;;;;;;;;;;;;2062488;28;7400;-65
2020/12/25 02:05:36;;;;;;;;;;;;;;;;;;2063375;28;7046;-63
2020/12/25 02:06:39;;;;;;;;;;;;;;;;;;2054825;28;7010;-64
2020/12/25 02:07:41;;;;;;;;;;;;;;;;;;2054319;28;7046;-66
2020/12/25 02:08:42;;;;;;;;;;;;;;;;;;2054187;28;7013;-64
2020/12/25 02:09:45;;;;;;;;;;;;;;;;;;2054997;28;7144;-66
2020/12/25 02:10:47;;;;;;;;;;;;;;;;;;2054647;28;7085;-67
2020/12/25 02:11:49;;;;;;;;;;;;;;;;;;2053515;28;7097;-66
2020/12/25 02:12:52;;;;;;;;;;;;;;;;;;2054906;28;7018;-66
2020/12/25 02:13:53;;;;;;;;;;;;;;;;;;2054631;28;7014;-66
2020/12/25 02:14:55;;;;;;;;;;;;;;;;;;2055125;28;7089;-64
2020/12/25 02:15:57;;;;;;;;;;;;;;;;;;2054046;28;7009;-66
2020/12/25 02:16:59;;;;;;;;;;;;;;;;;;2054761;28;7093;-65
2020/12/25 02:18:02;;;;;;;;;;;;;;;;;;2054743;28;7014;-65
2020/12/25 02:19:04;;;;;;;;;;;;;;;;;;2055107;28;7109;-65
2020/12/25 02:20:06;;;;;;;;;;;;;;;;;;2055243;28;7009;-65
2020/12/25 02:21:08;;;;;;;;;;;;;;;;;;2057017;28;7317;-66
2020/12/25 02:22:10;;;;;;;;;;;;;;;;;;2062888;28;7096;-65
2020/12/25 02:23:12;;;;;;;;;;;;;;;;;;2056861;28;7093;-65
2020/12/25 02:24:14;;;;;;;;;;;;;;;;;;2054956;28;7097;-65
2020/12/25 02:25:16;;;;;;;;;;;;;;;;;;2055172;28;7050;-63
2020/12/25 02:26:18;;;;;;;;;;;;;;;;;;2062317;28;7010;-65
2020/12/25 02:27:20;;;;;;;;;;;;;;;;;;2062780;28;7026;-64
2020/12/25 02:28:22;;;;;;;;;;;;;;;;;;2062673;28;7089;-66
2020/12/25 02:29:24;;;;;;;;;;;;;;;;;;2062483;28;8044;-64
2020/12/25 02:30:26;;;;;;;;;;;;;;;;;;2062547;28;8004;-64
2020/12/25 02:31:28;;;;;;;;;;;;;;;;;;2063113;28;7053;-65
2020/12/25 02:32:30;;;;;;;;;;;;;;;;;;2063076;28;7088;-65
2020/12/25 02:33:45;;;;;;;;;;;;;;;;;;2062610;28;7046;-64
2020/12/25 02:34:48;;;;;;;;;;;;;;;;;;2062487;28;7014;-64
2020/12/25 02:35:50;;;;;;;;;;;;;;;;;;2055188;28;8033;-63
2020/12/25 02:36:52;;;;;;;;;;;;;;;;;;2055360;28;8073;-63
2020/12/25 02:37:53;;;;;;;;;;;;;;;;;;2054573;28;7097;-64
2020/12/25 02:38:55;;;;;;;;;;;;;;;;;;2054608;28;7025;-65
2020/12/25 02:39:58;;;;;;;;;;;;;;;;;;2055356;28;7097;-65
2020/12/25 02:40:59;;;;;;;;;;;;;;;;;;2062613;28;7005;-65
2020/12/25 02:42:02;;;;;;;;;;;;;;;;;;2062520;28;7301;-66
2020/12/25 02:43:04;;;;;;;;;;;;;;;;;;2062854;28;7050;-65
2020/12/25 02:44:06;;;;;;;;;;;;;;;;;;2063069;28;7014;-65
2020/12/25 02:45:08;;;;;;;;;;;;;;;;;;2053557;28;7058;-64
2020/12/25 02:46:10;;;;;;;;;;;;;;;;;;2054715;28;7389;-65
2020/12/25 02:47:12;;;;;;;;;;;;;;;;;;2054549;28;7109;-66
2020/12/25 02:48:30;;;;;;;;;;;;;;;;;;2055219;28;7154;-63
2020/12/25 02:49:32;;;;;;;;;;;;;;;;;;2062533;28;7142;-66
2020/12/25 02:50:34;;;;;;;;;;;;;;;;;;2062644;28;7092;-68
2020/12/25 02:51:36;;;;;;;;;;;;;;;;;;2062325;28;7085;-66
2020/12/25 02:52:38;;;;;;;;;;;;;;;;;;2062561;28;7992;-67
2020/12/25 02:53:40;;;;;;;;;;;;;;;;;;2062795;28;7017;-65
2020/12/25 02:54:42;;;;;;;;;;;;;;;;;;2063111;28;7117;-64
2020/12/25 02:55:44;;;;;;;;;;;;;;;;;;2055022;28;7430;-65
2020/12/25 02:56:46;;;;;;;;;;;;;;;;;;2055355;28;7086;-66
2020/12/25 02:57:48;;;;;;;;;;;;;;;;;;2054510;28;7193;-65
2020/12/25 02:58:50;;;;;;;;;;;;;;;;;;2054564;28;7054;-66
2020/12/25 02:59:52;;;;;;;;;;;;;;;;;;2054523;28;8064;-66
2020/12/25 03:00:54;;;;;;;;;;;;;;;;;;2054656;28;7097;-64
2020/12/25 03:01:56;;;;;;;;;;;;;;;;;;2054337;28;7006;-64
2020/12/25 03:02:58;;;;;;;;;;;;;;;;;;2054457;28;7117;-63
2020/12/25 03:04:07;;;;;;;;;;;;;;;;;;2063011;28;7029;-65
2020/12/25 03:05:09;;;;;;;;;;;;;;;;;;2062341;28;7033;-64
2020/12/25 03:06:11;;;;;;;;;;;;;;;;;;2062357;28;7092;-66
2020/12/25 03:07:13;;;;;;;;;;;;;;;;;;2062408;28;7097;-67
2020/12/25 03:08:15;;;;;;;;;;;;;;;;;;2062371;28;7332;-66
2020/12/25 03:09:17;;;;;;;;;;;;;;;;;;2063047;28;7215;-64
2020/12/25 03:10:19;;;;;;;;;;;;;;;;;;2063162;28;7305;-64
2020/12/25 03:11:21;;;;;;;;;;;;;;;;;;2052606;28;7022;-65
2020/12/25 03:12:23;;;;;;;;;;;;;;;;;;2057248;28;7013;-67
2020/12/25 03:13:25;;;;;;;;;;;;;;;;;;2056797;28;8040;-67
2020/12/25 03:14:27;;;;;;;;;;;;;;;;;;2062257;28;7009;-65
2020/12/25 03:15:29;;;;;;;;;;;;;;;;;;2062011;28;8032;-67
2020/12/25 03:16:31;;;;;;;;;;;;;;;;;;2062173;28;9000;-63
2020/12/25 03:17:33;;;;;;;;;;;;;;;;;;2062136;28;7092;-65
2020/12/25 03:18:35;;;;;;;;;;;;;;;;;;2062684;28;7017;-66
2020/12/25 03:19:36;;;;;;;;;;;;;;;;;;2059275;28;7387;-66
2020/12/25 03:20:38;;;;;;;;;;;;;;;;;;2062568;28;7152;-63
2020/12/25 03:21:40;;;;;;;;;;;;;;;;;;2055412;28;7014;-67
2020/12/25 03:22:43;;;;;;;;;;;;;;;;;;2053887;28;7038;-64
2020/12/25 03:23:45;;;;;;;;;;;;;;;;;;2055105;28;7096;-66
2020/12/25 03:24:47;;;;;;;;;;;;;;;;;;2054769;28;7093;-64
2020/12/25 03:25:49;;;;;;;;;;;;;;;;;;2054268;28;7018;-64
2020/12/25 03:26:52;;;;;;;;;;;;;;;;;;2054244;28;7014;-64
2020/12/25 03:27:54;;;;;;;;;;;;;;;;;;2054645;28;7009;-64
2020/12/25 03:28:55;;;;;;;;;;;;;;;;;;2053789;28;7092;-65
2020/12/25 03:29:57;;;;;;;;;;;;;;;;;;2054790;28;7018;-66
2020/12/25 03:30:59;;;;;;;;;;;;;;;;;;2059174;28;7010;-64
2020/12/25 03:32:01;;;;;;;;;;;;;;;;;;2062344;28;7109;-64
2020/12/25 03:33:03;;;;;;;;;;;;;;;;;;2062146;28;7093;-63
2020/12/25 03:34:08;;;;;;;;;;;;;;;;;;2062069;28;8038;-63
2020/12/25 03:35:10;;;;;;;;;;;;;;;;;;2062076;28;7014;-65
2020/12/25 03:36:12;;;;;;;;;;;;;;;;;;2062425;28;7013;-64
2020/12/25 03:37:14;;;;;;;;;;;;;;;;;;2062061;28;7120;-65
2020/12/25 03:38:16;;;;;;;;;;;;;;;;;;2062909;28;7013;-63
2020/12/25 03:39:20;;;;;;;;;;;;;;;;;;2062853;28;7063;-66
2020/12/25 03:40:22;;;;;;;;;;;;;;;;;;2062450;28;7144;-66
2020/12/25 03:41:24;;;;;;;;;;;;;;;;;;2062336;28;7033;-66
2020/12/25 03:42:26;;;;;;;;;;;;;;;;;;2053801;28;7325;-67
2020/12/25 03:43:28;;;;;;;;;;;;;;;;;;2054424;28;7257;-65
2020/12/25 03:44:30;;;;;;;;;;;;;;;;;;2054716;28;7101;-64
2020/12/25 03:45:32;;;;;;;;;;;;;;;;;;2054276;28;7343;-65
2020/12/25 03:46:35;;;;;;;;;;;;;;;;;;2054372;28;7038;-64
2020/12/25 03:47:37;;;;;;;;;;;;;;;;;;2054662;28;7017;-66
2020/12/25 03:48:39;;;;;;;;;;;;;;;;;;2054615;28;7109;-65
2020/12/25 03:49:41;;;;;;;;;;;;;;;;;;2055192;28;7014;-65
2020/12/25 03:50:43;;;;;;;;;;;;;;;;;;2056240;28;7017;-65
2020/12/25 03:51:46;;;;;;;;;;;;;;;;;;2063982;28;7140;-65
2020/12/25 03:52:48;;;;;;;;;;;;;;;;;;2064881;28;7101;-65
2020/12/25 03:53:50;;;;;;;;;;;;;;;;;;2063718;28;7014;-64
2020/12/25 03:54:52;;;;;;;;;;;;;;;;;;2063844;28;7005;-65
2020/12/25 03:55:54;;;;;;;;;;;;;;;;;;2063940;28;7025;-66
2020/12/25 03:56:55;;;;;;;;;;;;;;;;;;2064016;28;7093;-67
2020/12/25 03:57:57;;;;;;;;;;;;;;;;;;2064198;28;7084;-64
2020/12/25 03:58:59;;;;;;;;;;;;;;;;;;2060295;28;7137;-67
2020/12/25 04:00:02;;;;;;;;;;;;;;;;;;2054596;28;7014;-65
2020/12/25 04:01:04;;;;;;;;;;;;;;;;;;2053792;28;7034;-64
2020/12/25 04:02:06;;;;;;;;;;;;;;;;;;2055909;28;8111;-65
2020/12/25 04:03:08;;;;;;;;;;;;;;;;;;2055843;28;7970;-64
2020/12/25 04:04:10;;;;;;;;;;;;;;;;;;2055086;28;8124;-63
2020/12/25 04:05:12;;;;;;;;;;;;;;;;;;2062633;28;7010;-64
2020/12/25 04:06:14;;;;;;;;;;;;;;;;;;2063675;28;7013;-62
2020/12/25 04:07:16;;;;;;;;;;;;;;;;;;2064516;28;7013;-65
2020/12/25 04:08:18;;;;;;;;;;;;;;;;;;2057687;28;7097;-65
2020/12/25 04:09:20;;;;;;;;;;;;;;;;;;2055910;28;7145;-66
2020/12/25 04:10:22;;;;;;;;;;;;;;;;;;2060869;28;7010;-66
2020/12/25 04:11:24;;;;;;;;;;;;;;;;;;2060424;28;7010;-66
2020/12/25 04:12:26;;;;;;;;;;;;;;;;;;2055723;28;7089;-64
2020/12/25 04:13:28;;;;;;;;;;;;;;;;;;2055720;28;7026;-67
2020/12/25 04:14:30;;;;;;;;;;;;;;;;;;2055972;28;7009;-64
2020/12/25 04:15:32;;;;;;;;;;;;;;;;;;2055707;28;8057;-63
2020/12/25 04:16:34;;;;;;;;;;;;;;;;;;2055920;28;7109;-65
2020/12/25 04:17:35;;;;;;;;;;;;;;;;;;2060946;28;8040;-66
2020/12/25 04:18:37;;;;;;;;;;;;;;;;;;2063372;28;7058;-68
2020/12/25 04:19:39;;;;;;;;;;;;;;;;;;2063890;28;7472;-66
2020/12/25 04:20:41;;;;;;;;;;;;;;;;;;2063900;28;7093;-66
2020/12/25 04:21:43;;;;;;;;;;;;;;;;;;2057189;28;7153;-65
2020/12/25 04:22:45;;;;;;;;;;;;;;;;;;2055561;28;7042;-65
2020/12/25 04:23:47;;;;;;;;;;;;;;;;;;2056338;28;7133;-65
2020/12/25 04:24:49;;;;;;;;;;;;;;;;;;2056192;28;7054;-65
2020/12/25 04:25:51;;;;;;;;;;;;;;;;;;2055594;28;8057;-64
2020/12/25 04:26:53;;;;;;;;;;;;;;;;;;2055706;28;7089;-65
2020/12/25 04:27:55;;;;;;;;;;;;;;;;;;2056066;28;7070;-65
2020/12/25 04:28:57;;;;;;;;;;;;;;;;;;2055928;28;7301;-68
2020/12/25 04:29:59;;;;;;;;;;;;;;;;;;2055906;28;7006;-64
2020/12/25 04:31:01;;;;;;;;;;;;;;;;;;2056198;28;7093;-66
2020/12/25 04:32:03;;;;;;;;;;;;;;;;;;2055926;28;7014;-63
2020/12/25 04:33:04;;;;;;;;;;;;;;;;;;2061096;28;8848;-65
2020/12/25 04:34:07;;;;;;;;;;;;;;;;;;2064171;28;7005;-65
2020/12/25 04:35:09;;;;;;;;;;;;;;;;;;2064019;28;7422;-63
2020/12/25 04:36:11;;;;;;;;;;;;;;;;;;2063461;28;7021;-67
2020/12/25 04:37:13;;;;;;;;;;;;;;;;;;2063467;28;7131;-64
2020/12/25 04:38:15;;;;;;;;;;;;;;;;;;2063553;28;8172;-65
2020/12/25 04:39:17;;;;;;;;;;;;;;;;;;2063300;28;7005;-65
2020/12/25 04:40:19;;;;;;;;;;;;;;;;;;2063888;28;7025;-65
2020/12/25 04:41:22;;;;;;;;;;;;;;;;;;2063846;28;7038;-65
2020/12/25 04:42:27;;;;;;;;;;;;;;;;;;2056092;28;7113;-63
2020/12/25 04:43:30;;;;;;;;;;;;;;;;;;2055925;28;7025;-66
2020/12/25 04:44:32;;;;;;;;;;;;;;;;;;2056042;28;8157;-65
2020/12/25 04:45:34;;;;;;;;;;;;;;;;;;2054653;28;7010;-64
2020/12/25 04:46:36;;;;;;;;;;;;;;;;;;2060933;28;7009;-64
2020/12/25 04:47:38;;;;;;;;;;;;;;;;;;2063280;28;7109;-65
2020/12/25 04:48:40;;;;;;;;;;;;;;;;;;2064025;28;7316;-63
2020/12/25 04:49:43;;;;;;;;;;;;;;;;;;2063316;28;7945;-64
2020/12/25 04:50:46;;;;;;;;;;;;;;;;;;2063064;28;7017;-64
2020/12/25 04:51:48;;;;;;;;;;;;;;;;;;2063360;28;7009;-66
2020/12/25 04:52:50;;;;;;;;;;;;;;;;;;2063234;28;7014;-64
2020/12/25 04:53:54;;;;;;;;;;;;;;;;;;2063178;28;7006;-65
2020/12/25 04:54:56;;;;;;;;;;;;;;;;;;2063548;28;7010;-64
2020/12/25 04:55:58;;;;;;;;;;;;;;;;;;2063642;28;7050;-63
2020/12/25 04:57:00;;;;;;;;;;;;;;;;;;2062556;28;7014;-65
2020/12/25 04:58:02;;;;;;;;;;;;;;;;;;2055395;28;7017;-66
2020/12/25 04:59:04;;;;;;;;;;;;;;;;;;2063386;28;7018;-65
2020/12/25 05:00:27;;;;;;;;;;;;;;;;;;2062927;28;7096;-65
2020/12/25 05:01:29;;;;;;;;;;;;;;;;;;2055939;28;7049;-65
2020/12/25 05:02:35;;;;;;;;;;;;;;;;;;2055211;28;8041;-65
2020/12/25 05:03:38;;;;;;;;;;;;;;;;;;2058776;28;7034;-66
2020/12/25 05:04:39;;;;;;;;;;;;;;;;;;2063215;28;7026;-63
2020/12/25 05:05:44;;;;;;;;;;;;;;;;;;2063549;28;7100;-65
2020/12/25 05:06:50;;;;;;;;;;;;;;;;;;2062769;28;7110;-65
2020/12/25 05:07:53;;;;;;;;;;;;;;;;;;2058060;28;7029;-65
2020/12/25 05:08:55;;;;;;;;;;;;;;;;;;2055182;28;7123;-65
2020/12/25 05:09:57;;;;;;;;;;;;;;;;;;2055618;28;7088;-65
2020/12/25 05:10:59;;;;;;;;;;;;;;;;;;2055653;28;7085;-63
2020/12/25 05:12:01;;;;;;;;;;;;;;;;;;2054899;28;7038;-66
2020/12/25 05:13:05;;;;;;;;;;;;;;;;;;2055003;28;7109;-65
2020/12/25 05:14:07;;;;;;;;;;;;;;;;;;2055696;28;7050;-63
2020/12/25 05:15:10;;;;;;;;;;;;;;;;;;2055711;28;7010;-64
2020/12/25 05:16:13;;;;;;;;;;;;;;;;;;2055873;28;8063;-65
2020/12/25 05:17:20;;;;;;;;;;;;;;;;;;2055586;28;7092;-64
2020/12/25 05:18:23;;;;;;;;;;;;;;;;;;2055472;28;7041;-64
2020/12/25 05:19:30;;;;;;;;;;;;;;;;;;2055076;28;7033;-63
2020/12/25 05:20:34;;;;;;;;;;;;;;;;;;2055456;28;7014;-66
2020/12/25 05:21:38;;;;;;;;;;;;;;;;;;2060570;28;7025;-66
2020/12/25 05:22:40;;;;;;;;;;;;;;;;;;2063435;28;7101;-65
2020/12/25 05:23:44;;;;;;;;;;;;;;;;;;2062988;28;7093;-66
2020/12/25 05:24:46;;;;;;;;;;;;;;;;;;2062980;28;7100;-66
2020/12/25 05:25:48;;;;;;;;;;;;;;;;;;2062859;28;7092;-66
2020/12/25 05:26:52;;;;;;;;;;;;;;;;;;2063205;28;7058;-65
2020/12/25 05:27:55;;;;;;;;;;;;;;;;;;2063204;28;7006;-65
2020/12/25 05:28:57;;;;;;;;;;;;;;;;;;2063026;28;7009;-63
2020/12/25 05:30:00;;;;;;;;;;;;;;;;;;2063401;28;7013;-65
2020/12/25 05:31:03;;;;;;;;;;;;;;;;;;2063506;28;7092;-66
2020/12/25 05:32:06;;;;;;;;;;;;;;;;;;2063371;28;7027;-65
2020/12/25 05:33:09;;;;;;;;;;;;;;;;;;2063237;28;7046;-64
2020/12/25 05:34:12;;;;;;;;;;;;;;;;;;2063052;28;7014;-65
2020/12/25 05:35:14;;;;;;;;;;;;;;;;;;2063402;28;7006;-66
2020/12/25 05:36:17;;;;;;;;;;;;;;;;;;2062919;28;7092;-64
2020/12/25 05:37:19;;;;;;;;;;;;;;;;;;2063764;28;7116;-66
2020/12/25 05:38:22;;;;;;;;;;;;;;;;;;2055575;28;7009;-64
2020/12/25 05:39:25;;;;;;;;;;;;;;;;;;2060981;28;7088;-63
2020/12/25 05:40:27;;;;;;;;;;;;;;;;;;2054186;28;7309;-64
2020/12/25 05:41:29;;;;;;;;;;;;;;;;;;2060438;28;7092;-64
2020/12/25 05:42:32;;;;;;;;;;;;;;;;;;2055381;28;7010;-64
2020/12/25 05:43:34;;;;;;;;;;;;;;;;;;2055559;28;7009;-64
2020/12/25 05:44:40;;;;;;;;;;;;;;;;;;2055207;28;7042;-63
2020/12/25 05:45:43;;;;;;;;;;;;;;;;;;2060331;28;7096;-66
2020/12/25 05:46:45;;;;;;;;;;;;;;;;;;2063102;28;7085;-65
2020/12/25 05:48:02;;;;;;;;;;;;;;;;;;2063761;28;7013;-65
2020/12/25 05:49:04;;;;;;;;;;;;;;;;;;2063087;28;7010;-63
2020/12/25 05:50:06;;;;;;;;;;;;;;;;;;2063222;28;7085;-64
2020/12/25 05:51:08;;;;;;;;;;;;;;;;;;2063724;28;8040;-64
2020/12/25 05:52:12;;;;;;;;;;;;;;;;;;2062956;28;7010;-63
2020/12/25 05:53:14;;;;;;;;;;;;;;;;;;2063018;28;7313;-66
2020/12/25 05:54:19;;;;;;;;;;;;;;;;;;2063353;28;7026;-66
2020/12/25 05:55:21;;;;;;;;;;;;;;;;;;2063080;28;7013;-65
2020/12/25 05:56:23;;;;;;;;;;;;;;;;;;2062887;28;7009;-64
2020/12/25 05:57:25;;;;;;;;;;;;;;;;;;2063033;28;7109;-66
2020/12/25 05:58:30;;;;;;;;;;;;;;;;;;2063047;28;7105;-66
2020/12/25 05:59:32;;;;;;;;;;;;;;;;;;2054268;28;7042;-66
2020/12/25 06:00:34;;;;;;;;;;;;;;;;;;2055726;28;7297;-65
2020/12/25 06:01:36;;;;;;;;;;;;;;;;;;2055628;28;7034;-66
2020/12/25 06:02:38;;;;;;;;;;;;;;;;;;2054975;28;7026;-62
2020/12/25 06:03:40;;;;;;;;;;;;;;;;;;2055144;28;7089;-66
2020/12/25 06:04:43;;;;;;;;;;;;;;;;;;2054926;28;7088;-67
2020/12/25 06:06:11;;;;;;;;;;;;;;;;;;2055362;28;7047;-63
2020/12/25 06:07:15;;;;;;;;;;;;;;;;;;2054789;28;7113;-64
2020/12/25 06:08:19;;;;;;;;;;;;;;;;;;2054579;28;8056;-65
2020/12/25 06:09:28;;;;;;;;;;;;;;;;;;2054214;28;7034;-65
2020/12/25 06:10:30;;;;;;;;;;;;;;;;;;2055001;28;7010;-65
2020/12/25 06:11:33;;;;;;;;;;;;;;;;;;2053960;28;7113;-66
2020/12/25 06:12:41;;;;;;;;;;;;;;;;;;2054324;28;8056;-66
2020/12/25 06:13:43;;;;;;;;;;;;;;;;;;2055232;28;8011;-66
2020/12/25 06:14:53;;;;;;;;;;;;;;;;;;2055039;28;8140;-65
2020/12/25 06:15:55;;;;;;;;;;;;;;;;;;2055132;28;7089;-65
2020/12/25 06:17:06;;;;;;;;;;;;;;;;;;2055290;28;7089;-66
2020/12/25 06:18:11;;;;;;;;;;;;;;;;;;2055175;28;7038;-65
2020/12/25 06:19:31;;;;;;;;;;;;;;;;;;2055221;28;7010;-65
2020/12/25 06:20:38;;;;;;;;;;;;;;;;;;2058098;28;7009;-64
2020/12/25 06:21:47;;;;;;;;;;;;;;;;;;2056768;28;7093;-66
2020/12/25 06:22:49;;;;;;;;;;;;;;;;;;2055305;28;7042;-66
2020/12/25 06:23:53;;;;;;;;;;;;;;;;;;2055324;28;7114;-64
2020/12/25 06:24:57;;;;;;;;;;;;;;;;;;2055285;28;7299;-64
2020/12/25 06:26:05;;;;;;;;;;;;;;;;;;2056368;28;7152;-65
2020/12/25 06:27:07;;;;;;;;;;;;;;;;;;2062838;28;7017;-65
2020/12/25 06:28:09;;;;;;;;;;;;;;;;;;2062465;28;7042;-65
2020/12/25 06:29:16;;;;;;;;;;;;;;;;;;2063211;28;7026;-66
2020/12/25 06:30:24;;;;;;;;;;;;;;;;;;2062808;28;7109;-64
2020/12/25 06:31:32;;;;;;;;;;;;;;;;;;2054181;28;8119;-64
2020/12/25 06:32:47;;;;;;;;;;;;;;;;;;2055288;28;7006;-66
2020/12/25 06:33:50;;;;;;;;;;;;;;;;;;2055078;28;7118;-65
2020/12/25 06:34:55;;;;;;;;;;;;;;;;;;2054596;28;7046;-67
2020/12/25 06:35:58;;;;;;;;;;;;;;;;;;2055008;28;7414;-65
2020/12/25 06:37:07;;;;;;;;;;;;;;;;;;2055160;28;7013;-64
2020/12/25 06:38:21;;;;;;;;;;;;;;;;;;2055476;28;7010;-66
2020/12/25 06:39:28;;;;;;;;;;;;;;;;;;2055073;28;7005;-66
2020/12/25 06:40:31;;;;;;;;;;;;;;;;;;2062208;28;7009;-65
2020/12/25 06:41:34;;;;;;;;;;;;;;;;;;2062877;28;8104;-65
2020/12/25 06:42:37;;;;;;;;;;;;;;;;;;2062659;28;7344;-64
2020/12/25 06:43:43;;;;;;;;;;;;;;;;;;2063388;28;7093;-67
2020/12/25 06:44:49;;;;;;;;;;;;;;;;;;2062997;28;8048;-64
2020/12/25 06:45:52;;;;;;;;;;;;;;;;;;2063257;28;7089;-66
2020/12/25 06:47:00;;;;;;;;;;;;;;;;;;2062851;28;7010;-65
2020/12/25 06:48:18;;;;;;;;;;;;;;;;;;2054706;28;7050;-67
2020/12/25 06:49:20;;;;;;;;;;;;;;;;;;2054772;28;7054;-68
2020/12/25 06:50:26;;;;;;;;;;;;;;;;;;2055225;28;7113;-65
2020/12/25 06:51:28;;;;;;;;;;;;;;;;;;2055327;28;7297;-65
2020/12/25 06:52:31;;;;;;;;;;;;;;;;;;2059500;28;7089;-64
2020/12/25 06:53:40;;;;;;;;;;;;;;;;;;2062669;28;8051;-67
2020/12/25 06:54:43;;;;;;;;;;;;;;;;;;2054975;28;7006;-66
2020/12/25 06:55:45;;;;;;;;;;;;;;;;;;2054798;28;8143;-64
2020/12/25 06:56:54;;;;;;;;;;;;;;;;;;2052143;28;7062;-65
2020/12/25 06:57:56;;;;;;;;;;;;;;;;;;2054665;28;7050;-65
2020/12/25 06:58:58;;;;;;;;;;;;;;;;;;2053503;28;7042;-65
2020/12/25 07:00:03;;;;;;;;;;;;;;;;;;2054383;28;7006;-65
2020/12/25 07:01:05;;;;;;;;;;;;;;;;;;2054500;28;7377;-67
2020/12/25 07:02:12;;;;;;;;;;;;;;;;;;2054169;28;7014;-64
2020/12/25 07:03:14;;;;;;;;;;;;;;;;;;2055682;28;7042;-64
2020/12/25 07:04:27;;;;;;;;;;;;;;;;;;2052941;28;7042;-66
2020/12/25 07:05:31;;;;;;;;;;;;;;;;;;2054150;28;8293;-64
2020/12/25 07:06:42;;;;;;;;;;;;;;;;;;2054425;28;8117;-67
2020/12/25 07:07:44;;;;;;;;;;;;;;;;;;2053327;28;7010;-63
2020/12/25 07:08:52;;;;;;;;;;;;;;;;;;2053772;28;7013;-65
2020/12/25 07:09:54;;;;;;;;;;;;;;;;;;2054081;28;7006;-67
2020/12/25 07:10:59;;;;;;;;;;;;;;;;;;2054380;28;7014;-65
2020/12/25 07:12:06;;;;;;;;;;;;;;;;;;2051779;28;7121;-65
2020/12/25 07:13:07;;;;;;;;;;;;;;;;;;2052640;28;7097;-66
2020/12/25 07:14:09;;;;;;;;;;;;;;;;;;2054346;28;7054;-65
2020/12/25 07:15:11;;;;;;;;;;;;;;;;;;2053998;28;7096;-65
2020/12/25 07:16:13;;;;;;;;;;;;;;;;;;2054007;28;7009;-66
2020/12/25 07:17:16;;;;;;;;;;;;;;;;;;2054397;28;7009;-65
2020/12/25 07:18:18;;;;;;;;;;;;;;;;;;2054134;28;7117;-66
2020/12/25 07:19:20;;;;;;;;;;;;;;;;;;2054858;28;7117;-64